sensor_id;sensor_type;location;lat;lon;timestamp;P1;durP1;ratioP1;P2;durP2;ratioP2
297;SDS011;133;49.626;9.680;2023-09-07T00:01:48;7.70;;;6.00;;
297;SDS011;133;49.626;9.680;2023-09-07T00:04:17;6.70;;;5.90;;
297;SDS011;133;49.626;9.680;2023-09-07T00:06:43;5.90;;;5.20;;
297;SDS011;133;49.626;9.680;2023-09-07T00:09:09;7.00;;;6.60;;
297;SDS011;133;49.626;9.680;2023-09-07T00:11:36;6.83;;;6.20;;
297;SDS011;133;49.626;9.680;2023-09-07T00:14:02;6.60;;;6.20;;
297;SDS011;133;49.626;9.680;2023-09-07T00:16:28;6.43;;;6.10;;
297;SDS011;133;49.626;9.680;2023-09-07T00:18:55;9.27;;;6.23;;
297;SDS011;133;49.626;9.680;2023-09-07T00:21:21;8.60;;;6.03;;
297;SDS011;133;49.626;9.680;2023-09-07T00:23:47;6.70;;;6.00;;
297;SDS011;133;49.626;9.680;2023-09-07T00:26:12;7.60;;;6.40;;
297;SDS011;133;49.626;9.680;2023-09-07T00:28:38;6.80;;;6.40;;
297;SDS011;133;49.626;9.680;2023-09-07T00:31:04;6.93;;;6.23;;
297;SDS011;133;49.626;9.680;2023-09-07T00:33:29;6.70;;;6.00;;
297;SDS011;133;49.626;9.680;2023-09-07T00:35:55;7.63;;;6.40;;
297;SDS011;133;49.626;9.680;2023-09-07T00:38:22;6.63;;;5.90;;
297;SDS011;133;49.626;9.680;2023-09-07T00:40:47;6.83;;;6.40;;
297;SDS011;133;49.626;9.680;2023-09-07T00:43:13;6.90;;;6.07;;
297;SDS011;133;49.626;9.680;2023-09-07T00:45:38;7.83;;;6.50;;
297;SDS011;133;49.626;9.680;2023-09-07T00:48:04;8.00;;;6.97;;
297;SDS011;133;49.626;9.680;2023-09-07T00:50:31;7.90;;;6.03;;
297;SDS011;133;49.626;9.680;2023-09-07T00:52:57;6.60;;;6.20;;
297;SDS011;133;49.626;9.680;2023-09-07T00:55:24;9.93;;;6.87;;
297;SDS011;133;49.626;9.680;2023-09-07T00:57:50;6.93;;;6.50;;
297;SDS011;133;49.626;9.680;2023-09-07T01:00:16;6.03;;;5.80;;
297;SDS011;133;49.626;9.680;2023-09-07T01:02:42;6.77;;;6.37;;
297;SDS011;133;49.626;9.680;2023-09-07T01:05:09;11.10;;;6.83;;
297;SDS011;133;49.626;9.680;2023-09-07T01:07:58;9.73;;;7.37;;
297;SDS011;133;49.626;9.680;2023-09-07T01:10:35;9.60;;;6.40;;
297;SDS011;133;49.626;9.680;2023-09-07T01:13:01;8.57;;;6.03;;
297;SDS011;133;49.626;9.680;2023-09-07T01:15:26;6.10;;;5.80;;
297;SDS011;133;49.626;9.680;2023-09-07T01:17:52;10.50;;;7.00;;
297;SDS011;133;49.626;9.680;2023-09-07T01:20:19;6.80;;;6.40;;
297;SDS011;133;49.626;9.680;2023-09-07T01:22:46;6.80;;;6.43;;
297;SDS011;133;49.626;9.680;2023-09-07T01:25:12;7.40;;;6.67;;
297;SDS011;133;49.626;9.680;2023-09-07T01:27:38;7.07;;;6.50;;
297;SDS011;133;49.626;9.680;2023-09-07T01:30:04;6.47;;;6.07;;
297;SDS011;133;49.626;9.680;2023-09-07T01:32:31;8.77;;;5.93;;
297;SDS011;133;49.626;9.680;2023-09-07T01:34:56;9.63;;;6.83;;
297;SDS011;133;49.626;9.680;2023-09-07T01:37:23;8.80;;;6.73;;
297;SDS011;133;49.626;9.680;2023-09-07T01:39:49;7.63;;;6.60;;
297;SDS011;133;49.626;9.680;2023-09-07T01:42:15;9.10;;;6.80;;
297;SDS011;133;49.626;9.680;2023-09-07T01:44:40;7.03;;;6.57;;
297;SDS011;133;49.626;9.680;2023-09-07T01:47:06;6.50;;;6.10;;
297;SDS011;133;49.626;9.680;2023-09-07T01:49:32;7.20;;;6.70;;
297;SDS011;133;49.626;9.680;2023-09-07T01:51:57;7.50;;;6.83;;
297;SDS011;133;49.626;9.680;2023-09-07T01:54:23;8.63;;;6.87;;
297;SDS011;133;49.626;9.680;2023-09-07T01:56:48;6.33;;;5.97;;
297;SDS011;133;49.626;9.680;2023-09-07T01:59:14;7.20;;;6.60;;
297;SDS011;133;49.626;9.680;2023-09-07T02:01:39;8.17;;;6.63;;
297;SDS011;133;49.626;9.680;2023-09-07T02:04:05;7.93;;;6.43;;
297;SDS011;133;49.626;9.680;2023-09-07T02:06:31;7.40;;;6.27;;
297;SDS011;133;49.626;9.680;2023-09-07T02:08:57;7.20;;;6.67;;
297;SDS011;133;49.626;9.680;2023-09-07T02:11:22;6.70;;;6.30;;
297;SDS011;133;49.626;9.680;2023-09-07T02:13:48;7.27;;;6.83;;
297;SDS011;133;49.626;9.680;2023-09-07T02:16:13;6.90;;;6.50;;
297;SDS011;133;49.626;9.680;2023-09-07T02:18:39;8.40;;;6.83;;
297;SDS011;133;49.626;9.680;2023-09-07T02:21:08;7.43;;;6.70;;
297;SDS011;133;49.626;9.680;2023-09-07T02:23:34;7.20;;;6.30;;
297;SDS011;133;49.626;9.680;2023-09-07T02:26:02;6.37;;;5.70;;
297;SDS011;133;49.626;9.680;2023-09-07T02:28:28;7.30;;;6.80;;
297;SDS011;133;49.626;9.680;2023-09-07T02:30:53;16.33;;;7.00;;
297;SDS011;133;49.626;9.680;2023-09-07T02:33:19;8.93;;;7.30;;
297;SDS011;133;49.626;9.680;2023-09-07T02:35:45;8.30;;;7.33;;
297;SDS011;133;49.626;9.680;2023-09-07T02:38:13;9.83;;;6.30;;
297;SDS011;133;49.626;9.680;2023-09-07T02:40:44;8.90;;;6.97;;
297;SDS011;133;49.626;9.680;2023-09-07T02:43:10;7.57;;;6.57;;
297;SDS011;133;49.626;9.680;2023-09-07T02:45:36;8.43;;;7.40;;
297;SDS011;133;49.626;9.680;2023-09-07T02:48:03;9.57;;;7.00;;
297;SDS011;133;49.626;9.680;2023-09-07T02:50:30;7.07;;;6.50;;
297;SDS011;133;49.626;9.680;2023-09-07T02:52:57;7.93;;;7.00;;
297;SDS011;133;49.626;9.680;2023-09-07T02:55:23;8.30;;;7.47;;
297;SDS011;133;49.626;9.680;2023-09-07T02:57:48;8.07;;;6.50;;
297;SDS011;133;49.626;9.680;2023-09-07T03:00:14;6.90;;;6.50;;
297;SDS011;133;49.626;9.680;2023-09-07T03:02:42;23.17;;;6.83;;
297;SDS011;133;49.626;9.680;2023-09-07T03:05:08;9.77;;;7.30;;
297;SDS011;133;49.626;9.680;2023-09-07T03:07:34;8.77;;;6.70;;
297;SDS011;133;49.626;9.680;2023-09-07T03:09:59;9.77;;;6.90;;
297;SDS011;133;49.626;9.680;2023-09-07T03:12:25;9.40;;;7.23;;
297;SDS011;133;49.626;9.680;2023-09-07T03:14:51;11.90;;;6.53;;
297;SDS011;133;49.626;9.680;2023-09-07T03:17:18;7.93;;;7.10;;
297;SDS011;133;49.626;9.680;2023-09-07T03:19:45;7.03;;;6.50;;
297;SDS011;133;49.626;9.680;2023-09-07T03:22:11;7.50;;;6.90;;
297;SDS011;133;49.626;9.680;2023-09-07T03:24:37;8.00;;;7.17;;
297;SDS011;133;49.626;9.680;2023-09-07T03:27:02;9.43;;;7.77;;
297;SDS011;133;49.626;9.680;2023-09-07T03:29:29;6.63;;;6.30;;
297;SDS011;133;49.626;9.680;2023-09-07T03:31:55;9.43;;;7.37;;
297;SDS011;133;49.626;9.680;2023-09-07T03:34:21;10.10;;;7.47;;
297;SDS011;133;49.626;9.680;2023-09-07T03:36:46;7.50;;;7.10;;
297;SDS011;133;49.626;9.680;2023-09-07T03:39:12;8.60;;;7.33;;
297;SDS011;133;49.626;9.680;2023-09-07T03:41:37;7.50;;;6.87;;
297;SDS011;133;49.626;9.680;2023-09-07T03:44:03;7.70;;;7.30;;
297;SDS011;133;49.626;9.680;2023-09-07T03:46:28;12.53;;;8.40;;
297;SDS011;133;49.626;9.680;2023-09-07T03:48:54;7.77;;;7.37;;
297;SDS011;133;49.626;9.680;2023-09-07T03:51:20;6.90;;;6.50;;
297;SDS011;133;49.626;9.680;2023-09-07T03:53:45;7.40;;;7.00;;
297;SDS011;133;49.626;9.680;2023-09-07T03:56:11;8.43;;;7.27;;
297;SDS011;133;49.626;9.680;2023-09-07T03:58:36;7.03;;;6.67;;
297;SDS011;133;49.626;9.680;2023-09-07T04:01:02;8.20;;;7.03;;
297;SDS011;133;49.626;9.680;2023-09-07T04:03:28;7.97;;;6.53;;
297;SDS011;133;49.626;9.680;2023-09-07T04:05:53;8.37;;;7.33;;
297;SDS011;133;49.626;9.680;2023-09-07T04:08:19;7.63;;;7.10;;
297;SDS011;133;49.626;9.680;2023-09-07T04:10:44;7.30;;;6.90;;
297;SDS011;133;49.626;9.680;2023-09-07T04:13:10;8.20;;;7.43;;
297;SDS011;133;49.626;9.680;2023-09-07T04:15:42;7.10;;;6.70;;
297;SDS011;133;49.626;9.680;2023-09-07T04:18:10;9.73;;;7.30;;
297;SDS011;133;49.626;9.680;2023-09-07T04:20:37;8.67;;;7.40;;
297;SDS011;133;49.626;9.680;2023-09-07T04:23:04;7.27;;;6.83;;
297;SDS011;133;49.626;9.680;2023-09-07T04:25:29;8.20;;;7.80;;
297;SDS011;133;49.626;9.680;2023-09-07T04:27:55;8.27;;;7.33;;
297;SDS011;133;49.626;9.680;2023-09-07T04:30:21;9.30;;;8.07;;
297;SDS011;133;49.626;9.680;2023-09-07T04:32:47;11.20;;;7.63;;
297;SDS011;133;49.626;9.680;2023-09-07T04:35:13;7.53;;;6.90;;
297;SDS011;133;49.626;9.680;2023-09-07T04:37:41;8.10;;;7.23;;
297;SDS011;133;49.626;9.680;2023-09-07T04:40:07;7.80;;;7.37;;
297;SDS011;133;49.626;9.680;2023-09-07T04:42:33;7.40;;;6.77;;
297;SDS011;133;49.626;9.680;2023-09-07T04:44:58;8.50;;;7.63;;
297;SDS011;133;49.626;9.680;2023-09-07T04:47:24;8.30;;;7.30;;
297;SDS011;133;49.626;9.680;2023-09-07T04:49:50;8.80;;;7.63;;
297;SDS011;133;49.626;9.680;2023-09-07T04:52:18;7.53;;;7.10;;
297;SDS011;133;49.626;9.680;2023-09-07T04:54:44;8.70;;;7.13;;
297;SDS011;133;49.626;9.680;2023-09-07T04:57:10;11.83;;;7.63;;
297;SDS011;133;49.626;9.680;2023-09-07T04:59:37;7.40;;;6.70;;
297;SDS011;133;49.626;9.680;2023-09-07T05:02:03;8.23;;;7.50;;
297;SDS011;133;49.626;9.680;2023-09-07T05:04:28;8.23;;;7.43;;
297;SDS011;133;49.626;9.680;2023-09-07T05:06:56;8.27;;;7.27;;
297;SDS011;133;49.626;9.680;2023-09-07T05:09:21;12.90;;;7.63;;
297;SDS011;133;49.626;9.680;2023-09-07T05:11:48;7.97;;;7.47;;
297;SDS011;133;49.626;9.680;2023-09-07T05:14:14;7.73;;;7.33;;
297;SDS011;133;49.626;9.680;2023-09-07T05:16:42;9.60;;;7.43;;
297;SDS011;133;49.626;9.680;2023-09-07T05:19:08;10.33;;;7.90;;
297;SDS011;133;49.626;9.680;2023-09-07T05:21:34;8.10;;;7.60;;
297;SDS011;133;49.626;9.680;2023-09-07T05:24:00;9.13;;;8.13;;
297;SDS011;133;49.626;9.680;2023-09-07T05:26:25;9.13;;;7.90;;
297;SDS011;133;49.626;9.680;2023-09-07T05:28:51;9.13;;;7.33;;
297;SDS011;133;49.626;9.680;2023-09-07T05:31:16;8.97;;;7.33;;
297;SDS011;133;49.626;9.680;2023-09-07T05:33:42;9.33;;;7.87;;
297;SDS011;133;49.626;9.680;2023-09-07T05:36:07;7.67;;;7.30;;
297;SDS011;133;49.626;9.680;2023-09-07T05:38:33;9.53;;;7.20;;
297;SDS011;133;49.626;9.680;2023-09-07T05:40:59;9.53;;;7.73;;
297;SDS011;133;49.626;9.680;2023-09-07T05:43:25;8.87;;;7.70;;
297;SDS011;133;49.626;9.680;2023-09-07T05:45:50;9.00;;;7.60;;
297;SDS011;133;49.626;9.680;2023-09-07T05:48:16;8.20;;;7.80;;
297;SDS011;133;49.626;9.680;2023-09-07T05:50:42;7.93;;;7.60;;
297;SDS011;133;49.626;9.680;2023-09-07T05:53:08;9.87;;;8.47;;
297;SDS011;133;49.626;9.680;2023-09-07T05:55:34;10.93;;;8.10;;
297;SDS011;133;49.626;9.680;2023-09-07T05:58:04;12.90;;;7.40;;
297;SDS011;133;49.626;9.680;2023-09-07T06:00:31;11.73;;;7.77;;
297;SDS011;133;49.626;9.680;2023-09-07T06:02:57;9.73;;;7.57;;
297;SDS011;133;49.626;9.680;2023-09-07T06:05:22;9.40;;;7.07;;
297;SDS011;133;49.626;9.680;2023-09-07T06:07:48;10.57;;;8.60;;
297;SDS011;133;49.626;9.680;2023-09-07T06:10:14;7.40;;;6.90;;
297;SDS011;133;49.626;9.680;2023-09-07T06:12:40;8.00;;;7.63;;
297;SDS011;133;49.626;9.680;2023-09-07T06:15:06;9.70;;;7.57;;
297;SDS011;133;49.626;9.680;2023-09-07T06:17:32;9.90;;;6.97;;
297;SDS011;133;49.626;9.680;2023-09-07T06:19:58;9.23;;;8.03;;
297;SDS011;133;49.626;9.680;2023-09-07T06:22:24;7.67;;;7.07;;
297;SDS011;133;49.626;9.680;2023-09-07T06:24:50;8.63;;;8.17;;
297;SDS011;133;49.626;9.680;2023-09-07T06:27:15;11.43;;;8.07;;
297;SDS011;133;49.626;9.680;2023-09-07T06:29:41;12.07;;;8.10;;
297;SDS011;133;49.626;9.680;2023-09-07T06:32:06;10.80;;;7.37;;
297;SDS011;133;49.626;9.680;2023-09-07T06:34:32;7.50;;;6.83;;
297;SDS011;133;49.626;9.680;2023-09-07T06:36:58;8.23;;;7.63;;
297;SDS011;133;49.626;9.680;2023-09-07T06:39:23;8.53;;;8.07;;
297;SDS011;133;49.626;9.680;2023-09-07T06:41:49;9.93;;;8.30;;
297;SDS011;133;49.626;9.680;2023-09-07T06:44:14;9.43;;;8.10;;
297;SDS011;133;49.626;9.680;2023-09-07T06:46:40;7.77;;;7.37;;
297;SDS011;133;49.626;9.680;2023-09-07T06:49:06;10.80;;;8.40;;
297;SDS011;133;49.626;9.680;2023-09-07T06:51:32;8.60;;;6.87;;
297;SDS011;133;49.626;9.680;2023-09-07T06:53:58;8.17;;;7.53;;
297;SDS011;133;49.626;9.680;2023-09-07T06:56:24;7.17;;;6.77;;
297;SDS011;133;49.626;9.680;2023-09-07T06:58:49;7.43;;;7.03;;
297;SDS011;133;49.626;9.680;2023-09-07T07:01:16;9.00;;;7.27;;
297;SDS011;133;49.626;9.680;2023-09-07T07:03:41;8.10;;;7.70;;
297;SDS011;133;49.626;9.680;2023-09-07T07:06:07;9.33;;;7.80;;
297;SDS011;133;49.626;9.680;2023-09-07T07:08:33;9.63;;;7.30;;
297;SDS011;133;49.626;9.680;2023-09-07T07:10:58;10.57;;;7.20;;
297;SDS011;133;49.626;9.680;2023-09-07T07:13:24;11.17;;;7.53;;
297;SDS011;133;49.626;9.680;2023-09-07T07:15:50;15.37;;;7.67;;
297;SDS011;133;49.626;9.680;2023-09-07T07:18:16;14.00;;;7.50;;
297;SDS011;133;49.626;9.680;2023-09-07T07:20:42;11.83;;;7.70;;
297;SDS011;133;49.626;9.680;2023-09-07T07:23:08;14.47;;;7.67;;
297;SDS011;133;49.626;9.680;2023-09-07T07:25:34;13.10;;;7.63;;
297;SDS011;133;49.626;9.680;2023-09-07T07:28:01;8.97;;;7.63;;
297;SDS011;133;49.626;9.680;2023-09-07T07:30:30;10.10;;;7.67;;
297;SDS011;133;49.626;9.680;2023-09-07T07:33:01;9.50;;;7.43;;
297;SDS011;133;49.626;9.680;2023-09-07T07:35:29;9.40;;;7.70;;
297;SDS011;133;49.626;9.680;2023-09-07T07:37:55;8.10;;;7.20;;
297;SDS011;133;49.626;9.680;2023-09-07T07:40:20;8.00;;;7.30;;
297;SDS011;133;49.626;9.680;2023-09-07T07:42:46;11.10;;;7.60;;
297;SDS011;133;49.626;9.680;2023-09-07T07:45:13;9.87;;;8.47;;
297;SDS011;133;49.626;9.680;2023-09-07T07:47:40;8.83;;;7.83;;
297;SDS011;133;49.626;9.680;2023-09-07T07:50:06;9.33;;;7.37;;
297;SDS011;133;49.626;9.680;2023-09-07T07:52:32;8.87;;;7.77;;
297;SDS011;133;49.626;9.680;2023-09-07T07:54:59;11.13;;;8.40;;
297;SDS011;133;49.626;9.680;2023-09-07T07:57:24;10.53;;;8.20;;
297;SDS011;133;49.626;9.680;2023-09-07T07:59:50;8.27;;;7.40;;
297;SDS011;133;49.626;9.680;2023-09-07T08:02:15;10.57;;;8.20;;
297;SDS011;133;49.626;9.680;2023-09-07T08:04:41;8.77;;;7.83;;
297;SDS011;133;49.626;9.680;2023-09-07T08:07:06;11.20;;;8.10;;
297;SDS011;133;49.626;9.680;2023-09-07T08:09:33;8.33;;;7.87;;
297;SDS011;133;49.626;9.680;2023-09-07T08:11:59;9.17;;;7.10;;
297;SDS011;133;49.626;9.680;2023-09-07T08:14:29;9.63;;;7.53;;
297;SDS011;133;49.626;9.680;2023-09-07T08:16:55;9.40;;;7.80;;
297;SDS011;133;49.626;9.680;2023-09-07T08:19:21;7.77;;;7.40;;
297;SDS011;133;49.626;9.680;2023-09-07T08:21:47;11.43;;;8.57;;
297;SDS011;133;49.626;9.680;2023-09-07T08:24:12;10.53;;;8.00;;
297;SDS011;133;49.626;9.680;2023-09-07T08:26:38;7.93;;;7.20;;
297;SDS011;133;49.626;9.680;2023-09-07T08:29:04;7.93;;;7.47;;
297;SDS011;133;49.626;9.680;2023-09-07T08:31:34;9.17;;;7.90;;
297;SDS011;133;49.626;9.680;2023-09-07T08:34:01;10.73;;;8.27;;
297;SDS011;133;49.626;9.680;2023-09-07T08:36:30;9.90;;;7.33;;
297;SDS011;133;49.626;9.680;2023-09-07T08:39:02;10.40;;;8.00;;
297;SDS011;133;49.626;9.680;2023-09-07T08:41:40;8.20;;;7.70;;
297;SDS011;133;49.626;9.680;2023-09-07T08:44:12;10.47;;;7.93;;
297;SDS011;133;49.626;9.680;2023-09-07T08:46:41;10.00;;;7.20;;
297;SDS011;133;49.626;9.680;2023-09-07T08:49:07;8.90;;;7.67;;
297;SDS011;133;49.626;9.680;2023-09-07T08:51:34;8.23;;;7.30;;
297;SDS011;133;49.626;9.680;2023-09-07T08:54:02;7.53;;;7.13;;
297;SDS011;133;49.626;9.680;2023-09-07T08:56:28;9.17;;;7.17;;
297;SDS011;133;49.626;9.680;2023-09-07T08:58:54;9.30;;;7.20;;
297;SDS011;133;49.626;9.680;2023-09-07T09:01:20;11.80;;;7.00;;
297;SDS011;133;49.626;9.680;2023-09-07T09:03:46;7.90;;;6.73;;
297;SDS011;133;49.626;9.680;2023-09-07T09:06:13;8.87;;;6.63;;
297;SDS011;133;49.626;9.680;2023-09-07T09:08:44;7.53;;;7.13;;
297;SDS011;133;49.626;9.680;2023-09-07T09:11:11;8.13;;;6.80;;
297;SDS011;133;49.626;9.680;2023-09-07T09:13:39;8.10;;;6.73;;
297;SDS011;133;49.626;9.680;2023-09-07T09:16:05;9.97;;;7.47;;
297;SDS011;133;49.626;9.680;2023-09-07T09:18:31;7.50;;;7.10;;
297;SDS011;133;49.626;9.680;2023-09-07T09:20:57;6.80;;;6.40;;
297;SDS011;133;49.626;9.680;2023-09-07T09:23:36;10.43;;;7.20;;
297;SDS011;133;49.626;9.680;2023-09-07T09:26:03;8.10;;;7.10;;
297;SDS011;133;49.626;9.680;2023-09-07T09:28:33;9.90;;;7.40;;
297;SDS011;133;49.626;9.680;2023-09-07T09:30:59;7.50;;;7.10;;
297;SDS011;133;49.626;9.680;2023-09-07T09:33:26;6.40;;;6.00;;
297;SDS011;133;49.626;9.680;2023-09-07T09:35:53;6.60;;;6.20;;
297;SDS011;133;49.626;9.680;2023-09-07T09:38:19;7.07;;;6.40;;
297;SDS011;133;49.626;9.680;2023-09-07T09:40:45;6.60;;;6.27;;
297;SDS011;133;49.626;9.680;2023-09-07T09:43:11;6.93;;;6.40;;
297;SDS011;133;49.626;9.680;2023-09-07T09:45:38;6.20;;;5.80;;
297;SDS011;133;49.626;9.680;2023-09-07T09:48:04;7.03;;;6.00;;
297;SDS011;133;49.626;9.680;2023-09-07T09:50:31;9.47;;;6.60;;
297;SDS011;133;49.626;9.680;2023-09-07T09:52:59;7.27;;;6.87;;
297;SDS011;133;49.626;9.680;2023-09-07T09:55:28;6.67;;;6.23;;
297;SDS011;133;49.626;9.680;2023-09-07T09:57:56;9.40;;;6.83;;
297;SDS011;133;49.626;9.680;2023-09-07T10:00:22;6.53;;;6.13;;
297;SDS011;133;49.626;9.680;2023-09-07T10:02:59;7.93;;;6.43;;
297;SDS011;133;49.626;9.680;2023-09-07T10:05:29;7.60;;;6.27;;
297;SDS011;133;49.626;9.680;2023-09-07T10:07:59;7.20;;;6.20;;
297;SDS011;133;49.626;9.680;2023-09-07T10:10:34;7.00;;;6.60;;
297;SDS011;133;49.626;9.680;2023-09-07T10:13:02;11.10;;;6.73;;
297;SDS011;133;49.626;9.680;2023-09-07T10:15:28;8.23;;;5.90;;
297;SDS011;133;49.626;9.680;2023-09-07T10:18:11;7.23;;;6.40;;
297;SDS011;133;49.626;9.680;2023-09-07T10:23:16;7.73;;;5.63;;
297;SDS011;133;49.626;9.680;2023-09-07T10:25:41;7.90;;;6.43;;
297;SDS011;133;49.626;9.680;2023-09-07T10:30:58;6.40;;;6.00;;
297;SDS011;133;49.626;9.680;2023-09-07T10:33:31;6.57;;;6.03;;
297;SDS011;133;49.626;9.680;2023-09-07T10:35:58;6.53;;;5.70;;
297;SDS011;133;49.626;9.680;2023-09-07T10:38:24;7.37;;;5.37;;
297;SDS011;133;49.626;9.680;2023-09-07T10:40:54;6.63;;;6.13;;
297;SDS011;133;49.626;9.680;2023-09-07T10:43:27;5.60;;;5.30;;
297;SDS011;133;49.626;9.680;2023-09-07T10:45:54;7.67;;;5.83;;
297;SDS011;133;49.626;9.680;2023-09-07T10:48:21;5.80;;;5.50;;
297;SDS011;133;49.626;9.680;2023-09-07T10:50:47;6.30;;;6.00;;
297;SDS011;133;49.626;9.680;2023-09-07T10:53:13;5.70;;;5.40;;
297;SDS011;133;49.626;9.680;2023-09-07T10:55:40;5.00;;;4.70;;
297;SDS011;133;49.626;9.680;2023-09-07T10:58:08;4.73;;;4.43;;
297;SDS011;133;49.626;9.680;2023-09-07T11:00:34;4.53;;;4.23;;
297;SDS011;133;49.626;9.680;2023-09-07T11:03:06;4.70;;;4.40;;
297;SDS011;133;49.626;9.680;2023-09-07T11:05:35;4.23;;;3.97;;
297;SDS011;133;49.626;9.680;2023-09-07T11:08:03;4.50;;;4.20;;
297;SDS011;133;49.626;9.680;2023-09-07T11:10:34;4.60;;;4.30;;
297;SDS011;133;49.626;9.680;2023-09-07T11:13:03;4.40;;;4.10;;
297;SDS011;133;49.626;9.680;2023-09-07T11:15:33;6.35;;;4.30;;
297;SDS011;133;49.626;9.680;2023-09-07T11:18:04;4.57;;;4.28;;
297;SDS011;133;49.626;9.680;2023-09-07T11:20:31;4.53;;;4.20;;
297;SDS011;133;49.626;9.680;2023-09-07T11:22:57;4.10;;;3.90;;
297;SDS011;133;49.626;9.680;2023-09-07T11:25:23;4.28;;;4.00;;
297;SDS011;133;49.626;9.680;2023-09-07T11:27:50;5.47;;;4.35;;
297;SDS011;133;49.626;9.680;2023-09-07T11:30:20;4.25;;;3.90;;
297;SDS011;133;49.626;9.680;2023-09-07T11:32:47;5.03;;;4.75;;
297;SDS011;133;49.626;9.680;2023-09-07T11:35:12;3.92;;;3.72;;
297;SDS011;133;49.626;9.680;2023-09-07T11:37:38;4.00;;;3.80;;
297;SDS011;133;49.626;9.680;2023-09-07T11:40:05;4.70;;;4.43;;
297;SDS011;133;49.626;9.680;2023-09-07T11:42:37;5.55;;;4.55;;
297;SDS011;133;49.626;9.680;2023-09-07T11:45:06;5.57;;;4.25;;
297;SDS011;133;49.626;9.680;2023-09-07T11:47:32;4.70;;;4.40;;
297;SDS011;133;49.626;9.680;2023-09-07T11:49:59;4.30;;;4.00;;
297;SDS011;133;49.626;9.680;2023-09-07T11:52:25;4.40;;;4.10;;
297;SDS011;133;49.626;9.680;2023-09-07T11:54:51;3.50;;;3.30;;
297;SDS011;133;49.626;9.680;2023-09-07T11:57:16;4.00;;;3.80;;
297;SDS011;133;49.626;9.680;2023-09-07T11:59:42;4.32;;;4.03;;
297;SDS011;133;49.626;9.680;2023-09-07T12:02:07;4.93;;;3.55;;
297;SDS011;133;49.626;9.680;2023-09-07T12:04:36;4.03;;;3.83;;
297;SDS011;133;49.626;9.680;2023-09-07T12:07:02;4.00;;;3.80;;
297;SDS011;133;49.626;9.680;2023-09-07T12:09:28;4.38;;;4.07;;
297;SDS011;133;49.626;9.680;2023-09-07T12:11:54;4.03;;;3.83;;
297;SDS011;133;49.626;9.680;2023-09-07T12:14:20;4.90;;;4.00;;
297;SDS011;133;49.626;9.680;2023-09-07T12:16:45;4.20;;;3.95;;
297;SDS011;133;49.626;9.680;2023-09-07T12:19:11;6.18;;;4.47;;
297;SDS011;133;49.626;9.680;2023-09-07T12:21:36;4.35;;;4.05;;
297;SDS011;133;49.626;9.680;2023-09-07T12:24:02;3.90;;;3.70;;
297;SDS011;133;49.626;9.680;2023-09-07T12:26:28;4.03;;;3.83;;
297;SDS011;133;49.626;9.680;2023-09-07T12:28:53;4.35;;;4.05;;
297;SDS011;133;49.626;9.680;2023-09-07T12:31:19;3.97;;;3.53;;
297;SDS011;133;49.626;9.680;2023-09-07T12:33:44;4.13;;;3.90;;
297;SDS011;133;49.626;9.680;2023-09-07T12:36:10;5.05;;;4.05;;
297;SDS011;133;49.626;9.680;2023-09-07T12:38:36;5.35;;;4.00;;
297;SDS011;133;49.626;9.680;2023-09-07T12:41:02;4.32;;;4.03;;
297;SDS011;133;49.626;9.680;2023-09-07T12:43:28;4.35;;;3.85;;
297;SDS011;133;49.626;9.680;2023-09-07T12:45:54;4.70;;;4.40;;
297;SDS011;133;49.626;9.680;2023-09-07T12:48:20;6.10;;;3.72;;
297;SDS011;133;49.626;9.680;2023-09-07T12:50:46;4.55;;;4.25;;
297;SDS011;133;49.626;9.680;2023-09-07T12:53:11;4.55;;;4.25;;
297;SDS011;133;49.626;9.680;2023-09-07T12:55:37;4.90;;;4.40;;
297;SDS011;133;49.626;9.680;2023-09-07T12:58:03;4.25;;;3.97;;
297;SDS011;133;49.626;9.680;2023-09-07T13:00:28;3.97;;;3.78;;
297;SDS011;133;49.626;9.680;2023-09-07T13:02:54;4.47;;;4.18;;
297;SDS011;133;49.626;9.680;2023-09-07T13:05:21;5.20;;;4.13;;
297;SDS011;133;49.626;9.680;2023-09-07T13:07:47;4.10;;;3.90;;
297;SDS011;133;49.626;9.680;2023-09-07T13:10:13;6.65;;;4.43;;
297;SDS011;133;49.626;9.680;2023-09-07T13:12:38;4.53;;;4.22;;
297;SDS011;133;49.626;9.680;2023-09-07T13:15:04;6.43;;;4.47;;
297;SDS011;133;49.626;9.680;2023-09-07T13:17:30;4.72;;;4.43;;
297;SDS011;133;49.626;9.680;2023-09-07T13:19:56;4.50;;;4.22;;
297;SDS011;133;49.626;9.680;2023-09-07T13:22:21;4.45;;;4.15;;
297;SDS011;133;49.626;9.680;2023-09-07T13:24:47;4.07;;;3.88;;
297;SDS011;133;49.626;9.680;2023-09-07T13:27:13;4.88;;;4.57;;
297;SDS011;133;49.626;9.680;2023-09-07T13:29:40;4.70;;;4.40;;
297;SDS011;133;49.626;9.680;2023-09-07T13:32:06;6.43;;;4.47;;
297;SDS011;133;49.626;9.680;2023-09-07T13:34:31;4.80;;;4.50;;
297;SDS011;133;49.626;9.680;2023-09-07T13:36:57;4.47;;;4.18;;
297;SDS011;133;49.626;9.680;2023-09-07T13:39:23;5.00;;;4.70;;
297;SDS011;133;49.626;9.680;2023-09-07T13:41:49;5.32;;;4.90;;
297;SDS011;133;49.626;9.680;2023-09-07T13:44:14;5.13;;;4.47;;
297;SDS011;133;49.626;9.680;2023-09-07T13:46:40;6.47;;;4.65;;
297;SDS011;133;49.626;9.680;2023-09-07T13:49:07;4.93;;;4.63;;
297;SDS011;133;49.626;9.680;2023-09-07T13:51:32;4.93;;;4.63;;
297;SDS011;133;49.626;9.680;2023-09-07T13:54:03;4.60;;;4.28;;
297;SDS011;133;49.626;9.680;2023-09-07T13:56:32;4.93;;;4.57;;
297;SDS011;133;49.626;9.680;2023-09-07T13:58:59;4.55;;;4.25;;
297;SDS011;133;49.626;9.680;2023-09-07T14:01:25;4.93;;;4.63;;
297;SDS011;133;49.626;9.680;2023-09-07T14:03:50;4.70;;;4.40;;
297;SDS011;133;49.626;9.680;2023-09-07T14:06:16;7.20;;;5.10;;
297;SDS011;133;49.626;9.680;2023-09-07T14:08:43;6.43;;;5.20;;
297;SDS011;133;49.626;9.680;2023-09-07T14:11:09;4.90;;;4.60;;
297;SDS011;133;49.626;9.680;2023-09-07T14:13:35;5.40;;;5.10;;
297;SDS011;133;49.626;9.680;2023-09-07T14:16:01;7.43;;;4.90;;
297;SDS011;133;49.626;9.680;2023-09-07T14:18:26;4.97;;;4.70;;
297;SDS011;133;49.626;9.680;2023-09-07T14:20:52;4.70;;;4.40;;
297;SDS011;133;49.626;9.680;2023-09-07T14:23:18;5.23;;;4.93;;
297;SDS011;133;49.626;9.680;2023-09-07T14:25:46;6.00;;;4.87;;
297;SDS011;133;49.626;9.680;2023-09-07T14:28:12;5.80;;;5.30;;
297;SDS011;133;49.626;9.680;2023-09-07T14:30:38;5.10;;;4.80;;
297;SDS011;133;49.626;9.680;2023-09-07T14:33:04;4.77;;;4.47;;
297;SDS011;133;49.626;9.680;2023-09-07T14:35:30;5.30;;;5.03;;
297;SDS011;133;49.626;9.680;2023-09-07T14:37:56;5.97;;;5.00;;
297;SDS011;133;49.626;9.680;2023-09-07T14:40:21;5.40;;;5.10;;
297;SDS011;133;49.626;9.680;2023-09-07T14:42:49;6.33;;;5.00;;
297;SDS011;133;49.626;9.680;2023-09-07T14:45:15;5.30;;;5.00;;
297;SDS011;133;49.626;9.680;2023-09-07T14:47:41;9.23;;;4.40;;
297;SDS011;133;49.626;9.680;2023-09-07T14:50:07;6.93;;;5.23;;
297;SDS011;133;49.626;9.680;2023-09-07T14:52:33;5.03;;;4.80;;
297;SDS011;133;49.626;9.680;2023-09-07T14:55:05;6.67;;;5.10;;
297;SDS011;133;49.626;9.680;2023-09-07T14:57:32;4.60;;;4.30;;
297;SDS011;133;49.626;9.680;2023-09-07T14:59:57;7.30;;;5.33;;
297;SDS011;133;49.626;9.680;2023-09-07T15:02:24;5.60;;;5.30;;
297;SDS011;133;49.626;9.680;2023-09-07T15:04:49;5.67;;;5.30;;
297;SDS011;133;49.626;9.680;2023-09-07T15:07:15;6.03;;;4.87;;
297;SDS011;133;49.626;9.680;2023-09-07T15:09:40;5.37;;;4.63;;
297;SDS011;133;49.626;9.680;2023-09-07T15:12:06;5.50;;;4.83;;
297;SDS011;133;49.626;9.680;2023-09-07T15:14:32;4.83;;;4.53;;
297;SDS011;133;49.626;9.680;2023-09-07T15:16:57;5.70;;;4.80;;
297;SDS011;133;49.626;9.680;2023-09-07T15:19:23;5.17;;;4.87;;
297;SDS011;133;49.626;9.680;2023-09-07T15:21:49;7.07;;;5.07;;
297;SDS011;133;49.626;9.680;2023-09-07T15:24:15;5.20;;;4.90;;
297;SDS011;133;49.626;9.680;2023-09-07T15:26:43;4.67;;;4.37;;
297;SDS011;133;49.626;9.680;2023-09-07T15:29:09;5.00;;;4.43;;
297;SDS011;133;49.626;9.680;2023-09-07T15:31:35;4.93;;;4.63;;
297;SDS011;133;49.626;9.680;2023-09-07T15:34:01;5.50;;;5.20;;
297;SDS011;133;49.626;9.680;2023-09-07T15:36:26;5.60;;;4.73;;
297;SDS011;133;49.626;9.680;2023-09-07T15:38:52;4.97;;;4.67;;
297;SDS011;133;49.626;9.680;2023-09-07T15:41:17;5.33;;;5.03;;
297;SDS011;133;49.626;9.680;2023-09-07T15:43:43;6.27;;;4.70;;
297;SDS011;133;49.626;9.680;2023-09-07T15:46:08;4.80;;;4.50;;